METAR LDSB 271400Z 16006KT 050V210 CAVOK 32/11 Q1020=
METAR LDSB 271330Z 15006KT 120V200 CAVOK 32/11 Q1020=
METAR LDSB 271300Z 16007KT 120V210 CAVOK 32/11 Q1020=
METAR LDSB 271230Z 15008KT 120V190 CAVOK 32/11 Q1020=
METAR LDSB 271200Z 14008KT 100V180 CAVOK 31/11 Q1020=
METAR LDSB 271130Z 13009KT 090V160 CAVOK 32/11 Q1020=
METAR LDSB 271100Z 16008KT 110V220 CAVOK 31/10 Q1021=
METAR LDSB 271030Z 14010KT CAVOK 32/11 Q1021=
METAR LDSB 271000Z 16010KT 120V190 CAVOK 31/11 Q1021=
METAR LDSB 270930Z 16009KT CAVOK 31/10 Q1021=
METAR LDSB 270900Z 14009KT CAVOK 30/11 Q1021=
METAR LDSB 270830Z 14011KT CAVOK 30/10 Q1021=
METAR LDSB 270800Z 15010KT CAVOK 30/10 Q1020=
METAR LDSB 270730Z 13010KT CAVOK 29/10 Q1020=
METAR LDSB 270700Z 13011KT CAVOK 29/10 Q1020=
METAR LDSB 270630Z 13010KT CAVOK 28/10 Q1020=
METAR LDSB 270600Z 13010KT CAVOK 28/10 Q1020=